Time;durP1;ratioP1;P1;durP2;ratioP2;P2;SDS_P1;SDS_P2;PMS_P1;PMS_P2;Temp;Humidity;BMP_temperature;BMP_pressure;BME280_temperature;BME280_humidity;BME280_pressure;Samples;Min_cycle;Max_cycle;Signal;HPM_P1;HPM_P2
2022/09/06 00:02:17;;;;;;;4.00;2.63;;;18.10;92.10;;;;;;5069742;28;20422;-73
2022/09/06 00:05:04;;;;;;;3.67;2.80;;;18.10;92.30;;;;;;5065656;28;20481;-72
2022/09/06 00:07:49;;;;;;;4.00;2.67;;;17.90;92.20;;;;;;5065704;28;20466;-73
2022/09/06 00:10:36;;;;;;;3.57;2.70;;;17.80;92.50;;;;;;5067517;28;20438;-72
2022/09/06 00:13:21;;;;;;;7.53;2.43;;;17.80;92.80;;;;;;5065674;28;20562;-73
2022/09/06 00:16:11;;;;;;;3.83;2.50;;;17.70;93.10;;;;;;5062663;28;20489;-73
2022/09/06 00:18:57;;;;;;;4.13;2.73;;;17.70;93.60;;;;;;5064304;28;20815;-73
2022/09/06 00:21:42;;;;;;;3.13;2.47;;;17.70;93.20;;;;;;5066213;28;20532;-72
2022/09/06 00:24:28;;;;;;;2.70;2.40;;;17.70;93.40;;;;;;5068102;28;20622;-73
2022/09/06 00:27:13;;;;;;;6.63;2.60;;;17.60;93.60;;;;;;5071240;28;20453;-73
2022/09/06 00:29:59;;;;;;;5.40;2.70;;;17.70;93.50;;;;;;5061833;28;20466;-73
2022/09/06 00:32:46;;;;;;;3.07;2.40;;;17.60;93.60;;;;;;5072693;28;20461;-73
2022/09/06 00:35:32;;;;;;;3.37;2.67;;;17.60;93.90;;;;;;5064585;28;20919;-73
2022/09/06 00:38:18;;;;;;;3.70;2.53;;;17.70;93.80;;;;;;5066154;28;20462;-73
2022/09/06 00:41:04;;;;;;;10.17;2.47;;;17.60;94.30;;;;;;5064510;28;21173;-73
2022/09/06 00:43:50;;;;;;;5.27;3.13;;;17.40;94.50;;;;;;5064649;28;20473;-72
2022/09/06 00:46:38;;;;;;;3.17;2.63;;;17.40;95.40;;;;;;5066516;28;20501;-72
2022/09/06 00:49:29;;;;;;;6.03;2.30;;;17.50;95.30;;;;;;5066659;28;20454;-73
2022/09/06 00:52:18;;;;;;;2.70;2.20;;;17.50;95.40;;;;;;5069826;28;20446;-73
2022/09/06 00:55:05;;;;;;;4.00;2.43;;;17.60;95.40;;;;;;5070235;28;20506;-73
2022/09/06 00:57:51;;;;;;;5.27;2.67;;;17.80;95.50;;;;;;5072648;28;20477;-73
2022/09/06 01:00:37;;;;;;;3.50;2.70;;;17.80;95.50;;;;;;5074188;28;20438;-73
2022/09/06 01:03:24;;;;;;;3.83;2.20;;;17.90;95.10;;;;;;5074508;28;20450;-73
2022/09/06 01:06:23;;;;;;;7.23;3.00;;;17.90;94.80;;;;;;5072986;28;20984;-73
2022/09/06 01:09:16;;;;;;;3.17;2.30;;;18.00;94.90;;;;;;5075470;28;20439;-73
2022/09/06 01:12:21;;;;;;;3.27;2.37;;;18.00;94.60;;;;;;5066085;28;20507;-72
2022/09/06 01:15:17;;;;;;;4.27;2.40;;;18.00;94.40;;;;;;5073724;28;20976;-73
2022/09/06 01:18:18;;;;;;;3.20;2.20;;;18.00;94.70;;;;;;5069259;28;20456;-73
2022/09/06 01:21:17;;;;;;;6.63;3.00;;;17.80;94.60;;;;;;5076271;28;20468;-73
2022/09/06 01:24:38;;;;;;;3.30;2.50;;;17.70;94.80;;;;;;5074151;28;20470;-73
2022/09/06 01:27:59;;;;;;;4.77;3.10;;;17.70;95.20;;;;;;5074850;28;20447;-73
2022/09/06 01:30:50;;;;;;;6.33;2.50;;;17.80;95.10;;;;;;5071457;28;20450;-73
2022/09/06 01:33:43;;;;;;;5.33;2.37;;;17.70;95.20;;;;;;5070247;28;20562;-72
2022/09/06 01:36:34;;;;;;;5.70;2.57;;;17.60;96.10;;;;;;5072812;28;20466;-73
2022/09/06 01:39:24;;;;;;;3.50;2.47;;;17.50;96.70;;;;;;5074905;28;20450;-73
2022/09/06 01:42:13;;;;;;;3.70;3.00;;;17.50;97.30;;;;;;5074423;28;20779;-73
2022/09/06 01:45:03;;;;;;;3.10;2.80;;;17.30;98.50;;;;;;5070640;28;20821;-73
2022/09/06 01:47:59;;;;;;;5.37;2.60;;;17.20;99.30;;;;;;5068629;28;20776;-73
2022/09/06 01:50:57;;;;;;;8.83;3.10;;;16.90;99.90;;;;;;5076882;28;20488;-72
2022/09/06 01:53:59;;;;;;;10.30;2.77;;;17.50;96.50;;;;;;5073059;28;20527;-73
2022/09/06 01:56:55;;;;;;;4.70;2.90;;;18.20;93.40;;;;;;5073421;28;20809;-73
2022/09/06 01:59:59;;;;;;;6.90;3.50;;;18.70;90.50;;;;;;5074917;28;20518;-73
2022/09/06 02:03:00;;;;;;;5.03;3.47;;;19.30;83.30;;;;;;5072075;28;20457;-73
2022/09/06 02:05:50;;;;;;;11.90;3.23;;;19.70;82.40;;;;;;5066119;28;20458;-73
2022/09/06 02:08:40;;;;;;;5.03;3.20;;;20.00;81.80;;;;;;5066108;28;20414;-73
2022/09/06 02:11:29;;;;;;;7.13;3.33;;;20.20;82.80;;;;;;5070185;28;20781;-73
2022/09/06 02:14:19;;;;;;;3.70;2.70;;;20.40;83.10;;;;;;5072915;28;20444;-72
2022/09/06 02:17:09;;;;;;;4.10;2.70;;;20.40;83.10;;;;;;5063933;28;20612;-73
2022/09/06 02:20:01;;;;;;;5.57;3.10;;;20.50;84.30;;;;;;5068318;28;22457;-73
2022/09/06 02:22:49;;;;;;;9.23;2.90;;;20.60;84.00;;;;;;5071073;28;20462;-73
2022/09/06 02:25:38;;;;;;;4.40;2.80;;;20.60;84.40;;;;;;5068933;28;21685;-73
2022/09/06 02:28:24;;;;;;;4.13;3.00;;;20.60;84.40;;;;;;5070746;28;20597;-73
2022/09/06 02:31:15;;;;;;;6.17;2.70;;;20.50;86.50;;;;;;5073730;28;20447;-73
2022/09/06 02:34:02;;;;;;;4.10;2.40;;;20.50;86.30;;;;;;5073926;28;20477;-73
2022/09/06 02:36:49;;;;;;;11.33;3.07;;;20.40;85.60;;;;;;5071156;28;20830;-73
2022/09/06 02:39:35;;;;;;;4.20;2.67;;;20.40;86.50;;;;;;5070268;28;20925;-73
2022/09/06 02:42:21;;;;;;;4.90;2.83;;;20.30;89.50;;;;;;5063911;28;20451;-73
2022/09/06 02:45:08;;;;;;;8.53;2.70;;;20.20;89.30;;;;;;5069056;28;20450;-73
2022/09/06 02:47:53;;;;;;;7.17;3.37;;;20.10;90.80;;;;;;5065166;28;20443;-73
2022/09/06 02:50:38;;;;;;;6.00;3.00;;;20.20;91.30;;;;;;5071917;28;20813;-73
2022/09/06 02:53:26;;;;;;;8.50;3.00;;;20.10;92.40;;;;;;5068641;28;22477;-73
2022/09/06 02:56:11;;;;;;;5.20;2.67;;;19.90;91.20;;;;;;5066302;28;20815;-72
2022/09/06 02:58:57;;;;;;;4.87;3.80;;;19.80;92.70;;;;;;5064079;28;20948;-73
2022/09/06 03:01:43;;;;;;;5.50;3.03;;;19.80;92.90;;;;;;5070181;28;20963;-73
2022/09/06 03:04:29;;;;;;;7.60;3.13;;;19.70;92.00;;;;;;5076286;28;20449;-73
2022/09/06 03:07:14;;;;;;;5.80;2.80;;;19.70;91.60;;;;;;5066038;28;20447;-73
2022/09/06 03:10:01;;;;;;;6.93;3.43;;;19.70;91.60;;;;;;5068584;28;20435;-73
2022/09/06 03:12:47;;;;;;;5.27;3.60;;;19.90;92.60;;;;;;5066436;28;20478;-73
2022/09/06 03:15:33;;;;;;;11.10;3.33;;;19.90;93.10;;;;;;5064236;28;20935;-73
2022/09/06 03:18:18;;;;;;;3.80;2.90;;;19.90;93.60;;;;;;5060354;28;21003;-73
2022/09/06 03:21:04;;;;;;;6.37;2.60;;;19.90;92.90;;;;;;5068133;28;20463;-73
2022/09/06 03:23:51;;;;;;;10.90;2.80;;;20.00;93.00;;;;;;5067694;28;20525;-73
2022/09/06 03:26:38;;;;;;;5.13;2.90;;;19.80;93.50;;;;;;5069987;28;20447;-73
2022/09/06 03:29:24;;;;;;;4.67;3.10;;;19.90;94.00;;;;;;5067787;28;20458;-73
2022/09/06 03:32:09;;;;;;;5.67;2.53;;;19.90;95.10;;;;;;5070999;28;20989;-73
2022/09/06 03:34:55;;;;;;;6.73;3.17;;;19.90;95.60;;;;;;5067911;28;20465;-73
2022/09/06 03:37:41;;;;;;;7.33;3.43;;;19.70;97.20;;;;;;5070225;28;21019;-73
2022/09/06 03:40:27;;;;;;;5.83;3.40;;;19.60;96.80;;;;;;5070874;28;20462;-73
2022/09/06 03:43:15;;;;;;;4.47;3.17;;;19.70;97.20;;;;;;5070788;28;20464;-73
2022/09/06 03:46:01;;;;;;;4.10;3.03;;;19.70;97.80;;;;;;5065813;28;20553;-73
2022/09/06 03:48:47;;;;;;;5.40;3.30;;;19.70;99.90;;;;;;5067936;28;20426;-73
2022/09/06 03:51:32;;;;;;;13.80;3.60;;;19.50;99.90;;;;;;5068756;28;20974;-73
2022/09/06 03:54:18;;;;;;;4.37;2.93;;;19.40;99.90;;;;;;5069609;28;20474;-72
2022/09/06 03:57:04;;;;;;;7.07;3.13;;;19.30;99.90;;;;;;5063596;28;20941;-73
2022/09/06 03:59:51;;;;;;;9.27;3.77;;;19.30;99.90;;;;;;5063880;28;20596;-73
2022/09/06 04:02:37;;;;;;;7.30;3.47;;;19.20;99.90;;;;;;5067172;28;20473;-73
2022/09/06 04:05:23;;;;;;;4.73;2.90;;;19.10;99.90;;;;;;5065457;28;20424;-73
2022/09/06 04:08:08;;;;;;;5.30;3.93;;;18.90;99.90;;;;;;5066951;28;21056;-73
2022/09/06 04:10:54;;;;;;;4.93;3.37;;;18.80;99.90;;;;;;5062484;28;20413;-75
2022/09/06 04:13:40;;;;;;;4.33;3.13;;;18.70;99.90;;;;;;5068943;28;20478;-74
2022/09/06 04:16:27;;;;;;;9.43;3.53;;;18.70;99.90;;;;;;5064141;28;20489;-73
2022/09/06 04:19:13;;;;;;;6.17;3.17;;;18.70;99.90;;;;;;5068649;28;20447;-75
2022/09/06 04:21:58;;;;;;;7.60;4.00;;;18.60;99.90;;;;;;5068091;28;20579;-75
2022/09/06 04:24:44;;;;;;;5.60;3.03;;;18.60;99.90;;;;;;5065936;28;20421;-74
2022/09/06 04:27:30;;;;;;;4.37;2.97;;;18.60;99.90;;;;;;5070187;28;20559;-73
2022/09/06 04:30:16;;;;;;;8.03;3.47;;;18.50;99.90;;;;;;5060730;28;20517;-75
2022/09/06 04:33:03;;;;;;;6.20;3.63;;;18.50;99.90;;;;;;5065710;28;20520;-75
2022/09/06 04:35:49;;;;;;;6.87;3.73;;;18.50;99.90;;;;;;5065340;28;20540;-75
2022/09/06 04:38:36;;;;;;;5.73;3.00;;;18.40;99.90;;;;;;5067249;28;20478;-74
2022/09/06 04:41:22;;;;;;;5.07;3.20;;;18.40;99.90;;;;;;5064594;28;20577;-75
2022/09/06 04:44:08;;;;;;;7.20;3.00;;;18.50;99.90;;;;;;5068113;28;20441;-75
2022/09/06 04:47:04;;;;;;;4.43;2.90;;;18.30;99.90;;;;;;5067431;28;20416;-75
2022/09/06 04:49:52;;;;;;;7.60;3.10;;;18.20;99.90;;;;;;5066310;28;20911;-75
2022/09/06 04:52:38;;;;;;;4.27;3.10;;;18.20;99.90;;;;;;5064147;28;20474;-75
2022/09/06 04:55:25;;;;;;;7.57;3.17;;;18.00;99.90;;;;;;5064677;28;20446;-74
2022/09/06 04:58:10;;;;;;;10.33;3.67;;;18.00;99.90;;;;;;5063124;28;20470;-75
2022/09/06 05:00:56;;;;;;;7.50;2.97;;;18.00;99.90;;;;;;5067123;28;20459;-75
2022/09/06 05:03:42;;;;;;;4.60;3.33;;;17.90;99.90;;;;;;5061098;28;20560;-74
2022/09/06 05:06:29;;;;;;;7.40;3.10;;;17.80;99.90;;;;;;5067202;28;20442;-74
2022/09/06 05:09:15;;;;;;;6.10;3.07;;;17.80;99.90;;;;;;5062057;28;20601;-72
2022/09/06 05:12:01;;;;;;;6.53;3.40;;;17.70;99.90;;;;;;5062112;28;20496;-73
2022/09/06 05:14:46;;;;;;;4.60;3.20;;;17.70;99.90;;;;;;5068934;28;20530;-73
2022/09/06 05:17:32;;;;;;;4.73;3.20;;;17.70;99.90;;;;;;5066404;28;20462;-72
2022/09/06 05:20:18;;;;;;;5.00;2.90;;;17.80;99.90;;;;;;5063572;28;20446;-73
2022/09/06 05:23:05;;;;;;;6.13;3.40;;;17.90;99.90;;;;;;5062889;28;20485;-73
2022/09/06 05:25:51;;;;;;;4.33;3.23;;;18.00;99.90;;;;;;5066928;28;20445;-73
2022/09/06 05:28:36;;;;;;;5.13;2.93;;;18.00;99.90;;;;;;5059975;28;20450;-73
2022/09/06 05:31:27;;;;;;;8.80;2.77;;;18.00;99.90;;;;;;5068933;28;20443;-72
2022/09/06 05:34:13;;;;;;;5.00;2.87;;;18.00;99.90;;;;;;5062116;28;20959;-73
2022/09/06 05:36:59;;;;;;;5.00;3.03;;;18.00;99.90;;;;;;5067696;28;20438;-74
2022/09/06 05:39:46;;;;;;;5.97;3.67;;;18.10;99.90;;;;;;5070665;28;20564;-73
2022/09/06 05:42:32;;;;;;;3.27;2.67;;;18.20;99.90;;;;;;5074442;28;20458;-74
2022/09/06 05:45:17;;;;;;;4.90;2.83;;;18.20;99.90;;;;;;5070954;28;20812;-73
2022/09/06 05:48:03;;;;;;;3.60;3.00;;;18.20;99.90;;;;;;5067273;28;20810;-73
2022/09/06 05:51:00;;;;;;;4.30;3.00;;;18.30;99.90;;;;;;5066324;28;20447;-73
2022/09/06 05:53:46;;;;;;;6.13;3.40;;;18.30;99.90;;;;;;5071394;28;20473;-72
2022/09/06 05:56:33;;;;;;;5.20;3.27;;;18.30;99.90;;;;;;5067251;28;20589;-74
2022/09/06 05:59:19;;;;;;;7.73;3.27;;;18.30;99.90;;;;;;5071103;28;20478;-70
2022/09/06 06:02:05;;;;;;;4.30;3.20;;;18.40;99.90;;;;;;5067841;28;20933;-74
2022/09/06 06:04:53;;;;;;;7.27;3.13;;;18.40;99.90;;;;;;5072025;28;20437;-74
2022/09/06 06:07:38;;;;;;;9.40;4.30;;;18.50;99.90;;;;;;5069183;28;22590;-74
2022/09/06 06:10:24;;;;;;;3.33;2.80;;;18.60;99.90;;;;;;5065299;28;20922;-74
2022/09/06 06:13:11;;;;;;;6.20;3.77;;;18.70;99.90;;;;;;5068574;28;20466;-75
2022/09/06 06:15:57;;;;;;;9.00;3.07;;;18.80;99.90;;;;;;5059676;28;20450;-75
2022/09/06 06:18:43;;;;;;;4.23;3.17;;;18.90;99.90;;;;;;5067726;28;20445;-75
2022/09/06 06:21:30;;;;;;;5.77;3.00;;;19.10;99.90;;;;;;5064427;28;20956;-75
2022/09/06 06:24:16;;;;;;;4.87;3.57;;;19.00;99.90;;;;;;5063267;28;20462;-74
2022/09/06 06:27:01;;;;;;;4.20;3.00;;;19.10;99.90;;;;;;5069890;28;20434;-75
2022/09/06 06:29:49;;;;;;;4.03;3.10;;;19.10;99.90;;;;;;5068273;28;20427;-75
2022/09/06 06:32:35;;;;;;;3.67;2.80;;;19.20;99.90;;;;;;5068198;28;20482;-75
2022/09/06 06:35:20;;;;;;;6.20;3.57;;;19.10;99.90;;;;;;5071353;28;20426;-75
2022/09/06 06:38:06;;;;;;;3.60;3.23;;;19.10;99.90;;;;;;5070844;28;21148;-75
2022/09/06 06:40:52;;;;;;;8.27;3.47;;;19.20;99.90;;;;;;5066297;28;20504;-75
2022/09/06 06:43:38;;;;;;;6.00;2.90;;;19.30;99.90;;;;;;5071024;28;20439;-75
2022/09/06 06:46:26;;;;;;;5.53;3.90;;;19.40;99.90;;;;;;5067558;28;20453;-75
2022/09/06 06:49:12;;;;;;;5.70;3.67;;;19.60;99.90;;;;;;5071392;28;20558;-75
2022/09/06 06:51:58;;;;;;;8.20;3.47;;;19.80;99.90;;;;;;5067391;28;20540;-75
2022/09/06 06:54:43;;;;;;;4.83;3.57;;;19.80;99.90;;;;;;5071263;28;20432;-75
2022/09/06 06:57:29;;;;;;;5.80;3.57;;;19.90;99.90;;;;;;5071405;28;20423;-74
2022/09/06 07:00:15;;;;;;;6.23;3.57;;;19.90;99.90;;;;;;5066011;28;20418;-75
2022/09/06 07:03:02;;;;;;;4.27;3.60;;;19.90;99.90;;;;;;5070873;28;20852;-75
2022/09/06 07:05:47;;;;;;;3.57;3.23;;;19.90;99.90;;;;;;5067020;28;20434;-75
2022/09/06 07:08:33;;;;;;;9.63;4.00;;;20.00;99.90;;;;;;5068402;28;20500;-75
2022/09/06 07:11:19;;;;;;;11.40;3.60;;;20.10;99.90;;;;;;5067355;28;20915;-75
2022/09/06 07:14:05;;;;;;;10.10;3.70;;;20.20;99.90;;;;;;5067470;28;20447;-75
2022/09/06 07:16:56;;;;;;;7.43;4.10;;;20.30;99.90;;;;;;5066076;28;20431;-76
2022/09/06 07:19:43;;;;;;;7.03;3.17;;;20.50;99.90;;;;;;5067593;28;20475;-75
2022/09/06 07:22:29;;;;;;;5.63;3.90;;;20.60;99.90;;;;;;5068835;28;20450;-75
2022/09/06 07:25:15;;;;;;;9.67;4.10;;;20.60;99.90;;;;;;5063169;28;20466;-76
2022/09/06 07:28:05;;;;;;;8.00;3.63;;;20.70;99.90;;;;;;5069577;28;21067;-75
2022/09/06 07:30:54;;;;;;;7.07;3.10;;;20.80;99.90;;;;;;5066676;28;20465;-76
2022/09/06 07:33:40;;;;;;;8.83;4.00;;;20.80;99.90;;;;;;5063342;28;20813;-75
2022/09/06 07:36:27;;;;;;;4.20;3.50;;;20.90;99.90;;;;;;5066176;28;20789;-74
2022/09/06 07:39:13;;;;;;;8.10;4.10;;;20.90;99.90;;;;;;5069355;28;20458;-75
2022/09/06 07:41:58;;;;;;;5.43;3.40;;;21.00;99.90;;;;;;5068502;28;20973;-75
2022/09/06 07:44:44;;;;;;;6.70;3.40;;;21.10;99.90;;;;;;5063763;28;20434;-76
2022/09/06 07:47:30;;;;;;;3.80;3.40;;;21.20;99.90;;;;;;5067243;28;20528;-75
2022/09/06 07:50:16;;;;;;;3.97;3.27;;;21.40;99.90;;;;;;5066159;28;20503;-75
2022/09/06 07:53:06;;;;;;;4.73;3.63;;;21.50;99.90;;;;;;5068618;28;20581;-75
2022/09/06 07:55:52;;;;;;;4.20;3.33;;;21.50;99.90;;;;;;5070578;28;20427;-76
2022/09/06 07:58:38;;;;;;;5.53;3.23;;;21.60;99.90;;;;;;5068183;28;21255;-75
2022/09/06 08:01:29;;;;;;;5.43;3.10;;;21.70;99.90;;;;;;5062889;28;20425;-75
2022/09/06 08:04:15;;;;;;;8.40;3.10;;;21.80;99.90;;;;;;5059800;28;20525;-75
2022/09/06 08:07:01;;;;;;;4.93;3.10;;;21.90;99.90;;;;;;5065496;28;20447;-75
2022/09/06 08:09:48;;;;;;;4.53;2.83;;;21.90;99.90;;;;;;5068357;28;20453;-72
2022/09/06 08:12:33;;;;;;;7.17;3.07;;;21.90;99.90;;;;;;5065196;28;20509;-76
2022/09/06 08:15:19;;;;;;;9.40;3.97;;;21.90;96.10;;;;;;5065273;28;20441;-76
2022/09/06 08:18:05;;;;;;;5.07;3.17;;;22.00;95.30;;;;;;5068785;28;20569;-75
2022/09/06 08:20:51;;;;;;;3.67;2.60;;;22.00;96.60;;;;;;5063411;28;20438;-76
2022/09/06 08:23:37;;;;;;;6.80;3.77;;;22.10;95.50;;;;;;5064434;28;20442;-76
2022/09/06 08:26:26;;;;;;;9.40;3.00;;;22.10;93.10;;;;;;5066948;28;20425;-76
2022/09/06 08:29:12;;;;;;;8.63;3.67;;;22.10;94.00;;;;;;5063635;28;20423;-76
2022/09/06 08:31:58;;;;;;;4.23;3.10;;;22.10;92.90;;;;;;5067425;28;20427;-74
2022/09/06 08:34:43;;;;;;;3.70;3.00;;;22.10;92.00;;;;;;5064696;28;20431;-75
2022/09/06 08:37:29;;;;;;;4.70;2.70;;;22.10;94.20;;;;;;5068127;28;20565;-76
2022/09/06 08:40:21;;;;;;;12.73;2.90;;;22.10;94.40;;;;;;5066527;28;21041;-75
2022/09/06 08:43:17;;;;;;;13.63;3.23;;;22.20;92.70;;;;;;5065636;28;20450;-75
2022/09/06 08:46:04;;;;;;;4.33;3.60;;;22.30;93.90;;;;;;5067469;28;20443;-75
2022/09/06 08:48:49;;;;;;;7.07;3.00;;;22.50;93.10;;;;;;5062501;28;20423;-74
2022/09/06 08:52:02;;;;;;;6.80;2.93;;;22.60;92.20;;;;;;5067563;28;20477;-75
2022/09/06 08:54:55;;;;;;;3.67;2.67;;;22.80;91.10;;;;;;5068886;28;20435;-76
2022/09/06 08:57:56;;;;;;;6.17;3.20;;;22.90;85.40;;;;;;5066163;28;20529;-75
2022/09/06 09:00:50;;;;;;;4.00;2.83;;;23.00;84.30;;;;;;5062579;28;20524;-76
2022/09/06 09:03:44;;;;;;;4.17;2.73;;;23.20;81.70;;;;;;5066652;28;20459;-75
2022/09/06 09:06:31;;;;;;;8.43;4.23;;;23.30;80.90;;;;;;5070090;28;20442;-75
2022/09/06 09:09:17;;;;;;;8.43;3.50;;;23.40;79.20;;;;;;5064978;28;20458;-75
2022/09/06 09:12:03;;;;;;;4.63;3.60;;;23.50;80.10;;;;;;5070000;28;20867;-74
2022/09/06 09:14:53;;;;;;;4.93;2.97;;;23.60;74.90;;;;;;5066416;28;20427;-75
2022/09/06 09:17:40;;;;;;;6.60;3.50;;;23.70;72.80;;;;;;5067274;28;20465;-75
2022/09/06 09:20:25;;;;;;;5.60;3.23;;;23.80;75.30;;;;;;5071105;28;20620;-75
2022/09/06 09:23:11;;;;;;;5.50;3.53;;;23.90;74.40;;;;;;5071137;28;20824;-76
2022/09/06 09:26:02;;;;;;;5.43;2.93;;;24.00;73.70;;;;;;5069477;28;20481;-75
2022/09/06 09:29:05;;;;;;;4.07;2.70;;;24.00;68.20;;;;;;5069439;28;20524;-74
2022/09/06 09:31:54;;;;;;;3.90;2.50;;;24.10;71.10;;;;;;5067040;28;20486;-76
2022/09/06 09:34:41;;;;;;;3.87;2.77;;;24.30;72.60;;;;;;5069584;28;20545;-76
2022/09/06 09:37:27;;;;;;;5.10;3.30;;;24.40;68.50;;;;;;5071959;28;20782;-75
2022/09/06 09:40:18;;;;;;;7.00;2.90;;;24.50;66.40;;;;;;5064843;28;20471;-75
2022/09/06 09:43:16;;;;;;;5.90;3.47;;;24.70;69.20;;;;;;5070584;28;20488;-73
2022/09/06 09:46:15;;;;;;;4.57;2.97;;;24.80;65.30;;;;;;5070348;28;20544;-75
2022/09/06 09:49:04;;;;;;;5.47;2.97;;;24.90;63.60;;;;;;5069126;28;20909;-75
2022/09/06 09:52:07;;;;;;;4.00;3.17;;;24.90;61.80;;;;;;5073504;28;20558;-75
2022/09/06 09:54:56;;;;;;;6.90;3.20;;;25.10;64.20;;;;;;5064229;28;20871;-74
2022/09/06 09:57:46;;;;;;;5.70;3.00;;;25.30;61.90;;;;;;5068954;28;20438;-73
2022/09/06 10:00:34;;;;;;;4.20;2.93;;;25.40;62.30;;;;;;5070822;28;20475;-74
2022/09/06 10:03:29;;;;;;;5.60;2.60;;;25.50;62.90;;;;;;5070770;28;20529;-74
2022/09/06 10:06:15;;;;;;;5.63;3.17;;;25.70;59.20;;;;;;5064541;28;20454;-73
2022/09/06 10:09:15;;;;;;;5.37;3.17;;;25.80;55.00;;;;;;5067123;28;20825;-73
2022/09/06 10:12:01;;;;;;;4.23;2.63;;;25.80;53.90;;;;;;5069024;28;20578;-74
2022/09/06 10:14:49;;;;;;;4.20;2.70;;;25.90;56.60;;;;;;5097197;22;21009;-74
2022/09/06 10:17:37;;;;;;;6.27;3.13;;;25.90;51.10;;;;;;5067232;28;20435;-75
2022/09/06 10:20:29;;;;;;;4.17;3.40;;;26.00;52.50;;;;;;5066979;28;20540;-74
2022/09/06 10:23:23;;;;;;;9.70;3.50;;;26.10;51.60;;;;;;5072078;28;20461;-74
2022/09/06 10:26:16;;;;;;;8.33;3.00;;;26.10;50.80;;;;;;5064443;28;20450;-74
2022/09/06 10:29:05;;;;;;;5.37;3.07;;;26.20;52.10;;;;;;5059167;28;20558;-74
2022/09/06 10:32:04;;;;;;;4.67;2.97;;;26.30;48.50;;;;;;5065370;28;20450;-74
2022/09/06 10:35:04;;;;;;;6.63;3.17;;;26.50;50.50;;;;;;5061075;28;20479;-74
2022/09/06 10:38:02;;;;;;;8.20;3.17;;;26.60;47.50;;;;;;5067279;28;20489;-74
2022/09/06 10:40:59;;;;;;;6.20;3.30;;;26.80;46.40;;;;;;5067287;28;20501;-74
2022/09/06 10:43:57;;;;;;;4.17;3.20;;;26.80;46.00;;;;;;5065124;28;20454;-74
2022/09/06 10:46:45;;;;;;;5.00;3.60;;;26.90;44.70;;;;;;5066885;28;20450;-74
2022/09/06 10:49:33;;;;;;;4.70;3.50;;;27.00;43.10;;;;;;5065414;28;20447;-75
2022/09/06 10:52:24;;;;;;;8.57;3.30;;;27.00;43.00;;;;;;5067636;28;20454;-74
2022/09/06 10:55:14;;;;;;;4.10;2.67;;;27.00;42.40;;;;;;5065126;28;20945;-75
2022/09/06 10:58:04;;;;;;;5.57;3.00;;;27.10;40.90;;;;;;5064014;28;20808;-74
2022/09/06 11:00:53;;;;;;;8.30;3.40;;;27.20;38.90;;;;;;5067368;28;20552;-74
2022/09/06 11:03:42;;;;;;;15.83;3.10;;;27.30;42.30;;;;;;5068071;28;20454;-74
2022/09/06 11:06:33;;;;;;;4.93;3.53;;;27.20;40.10;;;;;;5068215;28;20771;-74
2022/09/06 11:09:27;;;;;;;4.00;3.00;;;27.30;41.70;;;;;;5065355;28;20443;-74
2022/09/06 11:12:19;;;;;;;8.40;3.20;;;27.40;41.40;;;;;;5070760;28;20490;-75
2022/09/06 11:15:08;;;;;;;6.93;3.30;;;27.60;43.40;;;;;;5064886;28;20526;-74
2022/09/06 11:18:01;;;;;;;4.43;2.63;;;27.70;40.90;;;;;;5064147;28;20820;-74
2022/09/06 11:20:57;;;;;;;6.40;3.10;;;27.80;40.00;;;;;;5068065;28;20459;-74
2022/09/06 11:23:49;;;;;;;6.63;3.00;;;27.90;40.30;;;;;;5069201;28;20472;-74
2022/09/06 11:26:42;;;;;;;4.80;2.70;;;27.90;38.90;;;;;;5066339;28;20512;-75
2022/09/06 11:29:31;;;;;;;5.70;3.50;;;28.00;39.10;;;;;;5067007;28;20446;-74
2022/09/06 11:32:44;;;;;;;10.70;3.60;;;27.90;37.20;;;;;;5069256;28;20470;-75
2022/09/06 11:35:33;;;;;;;4.63;2.93;;;28.10;38.40;;;;;;5061707;28;20450;-74
2022/09/06 11:38:23;;;;;;;5.07;3.40;;;28.00;40.00;;;;;;5065716;28;20459;-74
2022/09/06 11:41:14;;;;;;;5.40;3.50;;;28.10;40.00;;;;;;5065565;28;20475;-74
2022/09/06 11:44:01;;;;;;;4.40;2.97;;;28.10;38.00;;;;;;5066304;28;20520;-74
2022/09/06 11:47:02;;;;;;;5.03;3.30;;;28.20;38.30;;;;;;5062449;28;20828;-74
2022/09/06 11:49:48;;;;;;;4.33;3.20;;;28.20;38.10;;;;;;5067385;28;20447;-74
2022/09/06 11:53:14;;;;;;;10.20;2.63;;;28.30;36.20;;;;;;5065994;28;20447;-75
2022/09/06 11:56:28;;;;;;;5.00;2.60;;;28.40;36.60;;;;;;5065663;28;20477;-75
2022/09/06 11:59:28;;;;;;;7.33;3.03;;;28.60;36.30;;;;;;5064706;28;20546;-74
2022/09/06 12:02:39;;;;;;;3.20;2.50;;;28.60;35.60;;;;;;5065480;28;20455;-74
2022/09/06 12:05:28;;;;;;;6.40;3.00;;;28.70;35.20;;;;;;5051793;28;20445;-74
2022/09/06 12:08:34;;;;;;;10.80;2.80;;;28.70;33.50;;;;;;5067338;28;20517;-74
2022/09/06 12:11:36;;;;;;;7.23;3.00;;;28.80;33.60;;;;;;5065319;28;20463;-74
2022/09/06 12:14:33;;;;;;;3.97;2.53;;;28.90;32.50;;;;;;5062998;28;20474;-75
2022/09/06 12:17:21;;;;;;;4.00;2.30;;;29.10;34.70;;;;;;5066728;28;20923;-74
2022/09/06 12:20:07;;;;;;;6.10;2.90;;;29.20;31.50;;;;;;5064444;28;20495;-74
2022/09/06 12:22:54;;;;;;;10.27;2.70;;;29.30;32.20;;;;;;5064272;28;20439;-75
2022/09/06 12:25:55;;;;;;;6.70;2.87;;;29.40;32.50;;;;;;5066176;28;20429;-75
2022/09/06 12:28:47;;;;;;;5.73;3.43;;;29.60;34.30;;;;;;5065896;28;20438;-74
2022/09/06 12:31:37;;;;;;;4.40;2.73;;;29.90;32.40;;;;;;5058014;28;20525;-74
2022/09/06 12:34:26;;;;;;;8.27;3.00;;;30.00;29.90;;;;;;5062521;28;20483;-75
2022/09/06 12:37:12;;;;;;;7.43;3.03;;;30.10;30.70;;;;;;5062166;28;20446;-74
2022/09/06 12:39:58;;;;;;;6.57;2.30;;;30.20;29.60;;;;;;5065144;28;20474;-74
2022/09/06 12:42:48;;;;;;;5.53;2.77;;;30.20;28.80;;;;;;5057901;28;21103;-74
2022/09/06 12:45:33;;;;;;;5.10;2.57;;;29.90;27.20;;;;;;5063277;28;20438;-74
2022/09/06 12:48:28;;;;;;;3.80;2.57;;;29.80;28.30;;;;;;5064697;28;20828;-74
2022/09/06 12:51:20;;;;;;;6.43;3.20;;;29.90;28.90;;;;;;5067292;28;20426;-75
2022/09/06 12:54:17;;;;;;;5.00;2.83;;;30.10;29.20;;;;;;5064064;28;20896;-75
2022/09/06 12:57:12;;;;;;;5.60;2.83;;;30.20;29.30;;;;;;5062817;28;20446;-74
2022/09/06 13:00:00;;;;;;;6.63;2.93;;;30.20;29.20;;;;;;5062841;28;20986;-74
2022/09/06 13:02:55;;;;;;;8.23;2.83;;;30.40;28.60;;;;;;5064818;28;20442;-75
2022/09/06 13:05:44;;;;;;;4.27;2.17;;;30.40;26.70;;;;;;5058646;28;20447;-74
2022/09/06 13:08:36;;;;;;;8.30;2.63;;;30.40;27.00;;;;;;5064085;28;20455;-75
2022/09/06 13:11:25;;;;;;;5.13;2.93;;;30.60;26.80;;;;;;5060096;28;20458;-75
2022/09/06 13:14:12;;;;;;;5.40;2.93;;;30.80;26.70;;;;;;5022546;28;1189962;-74
2022/09/06 13:16:59;;;;;;;5.07;2.40;;;31.20;26.20;;;;;;5065223;28;20208;-75
2022/09/06 13:19:46;;;;;;;4.70;2.53;;;31.00;25.30;;;;;;5066709;28;20461;-75
2022/09/06 13:22:49;;;;;;;4.30;2.70;;;31.10;25.10;;;;;;5057498;28;20470;-74
2022/09/06 13:25:35;;;;;;;11.83;2.00;;;31.00;25.60;;;;;;5068452;28;20441;-74
2022/09/06 13:28:26;;;;;;;9.17;2.50;;;31.10;25.40;;;;;;5059788;28;20423;-74
2022/09/06 13:31:19;;;;;;;5.93;2.40;;;31.20;25.50;;;;;;5068300;28;20431;-75
2022/09/06 13:34:06;;;;;;;7.20;2.43;;;31.30;23.00;;;;;;5067277;28;20438;-75
2022/09/06 13:36:54;;;;;;;3.40;2.27;;;31.10;23.90;;;;;;5062590;28;20447;-74
2022/09/06 13:39:42;;;;;;;5.10;2.70;;;31.30;24.40;;;;;;5060795;28;20506;-74
2022/09/06 13:42:31;;;;;;;7.17;2.30;;;31.60;24.50;;;;;;5058493;28;20451;-74
2022/09/06 13:45:24;;;;;;;5.27;2.30;;;31.70;23.60;;;;;;5063159;28;20463;-74
2022/09/06 13:48:10;;;;;;;4.50;2.40;;;31.80;23.30;;;;;;5064198;28;20442;-74
2022/09/06 13:50:58;;;;;;;5.00;2.27;;;31.70;23.20;;;;;;5064696;28;20439;-74
2022/09/06 13:53:44;;;;;;;6.53;2.50;;;31.50;23.10;;;;;;5065765;28;20600;-74
2022/09/06 13:56:30;;;;;;;12.60;3.00;;;31.30;23.80;;;;;;5065409;28;20954;-74
2022/09/06 13:59:17;;;;;;;4.90;2.70;;;31.30;23.40;;;;;;5066820;28;20559;-74
2022/09/06 14:02:06;;;;;;;5.03;2.57;;;31.60;23.10;;;;;;5067283;28;20457;-74
2022/09/06 14:04:52;;;;;;;9.90;3.33;;;31.80;22.50;;;;;;5067998;28;20474;-74
2022/09/06 14:07:38;;;;;;;4.97;2.80;;;31.90;23.40;;;;;;5066315;28;20482;-74
2022/09/06 14:10:25;;;;;;;4.20;2.87;;;32.00;23.50;;;;;;5067527;28;20458;-74
2022/09/06 14:13:11;;;;;;;4.13;2.33;;;31.40;22.80;;;;;;5066315;28;20465;-74
2022/09/06 14:15:57;;;;;;;6.13;2.50;;;30.90;23.30;;;;;;5065827;28;20446;-74
2022/09/06 14:18:43;;;;;;;4.20;2.43;;;30.60;24.40;;;;;;5064520;28;20970;-74
2022/09/06 14:21:29;;;;;;;6.67;2.50;;;30.40;25.00;;;;;;5063428;28;20479;-74
2022/09/06 14:24:17;;;;;;;4.37;2.27;;;30.20;25.50;;;;;;5070944;28;20462;-74
2022/09/06 14:27:03;;;;;;;7.73;2.53;;;30.20;27.20;;;;;;5060460;28;21002;-74
2022/09/06 14:29:49;;;;;;;5.40;2.87;;;30.30;25.60;;;;;;5067061;28;20586;-74
2022/09/06 14:32:35;;;;;;;3.80;2.47;;;30.50;25.70;;;;;;5063353;28;20450;-74
2022/09/06 14:35:21;;;;;;;14.10;2.40;;;30.50;25.60;;;;;;5067093;28;20471;-74
2022/09/06 14:38:06;;;;;;;12.83;2.67;;;30.60;25.40;;;;;;5067481;28;21068;-74
2022/09/06 14:40:54;;;;;;;5.80;2.47;;;30.70;25.00;;;;;;5067094;28;20466;-74